createdAt,value
2018-06-11T00:00:37.436Z,19.67
2018-06-11T00:01:37.499Z,19.70
2018-06-11T00:02:37.562Z,19.78
2018-06-11T00:03:37.624Z,19.82
2018-06-11T00:04:37.686Z,19.76
2018-06-11T00:05:37.749Z,19.80
2018-06-11T00:06:37.811Z,19.79
2018-06-11T00:07:37.874Z,19.67
2018-06-11T00:08:37.937Z,19.71
2018-06-11T00:09:37.999Z,19.68
2018-06-11T00:10:38.062Z,19.65
2018-06-11T00:11:38.123Z,19.64
2018-06-11T00:12:38.189Z,19.70
2018-06-11T00:13:38.249Z,19.71
2018-06-11T00:14:38.312Z,19.64
2018-06-11T00:15:38.374Z,19.67
2018-06-11T00:16:38.435Z,19.70
2018-06-11T00:17:38.499Z,19.70
2018-06-11T00:18:38.962Z,19.71
2018-06-11T00:19:38.623Z,19.67
2018-06-11T00:20:38.687Z,19.67
2018-06-11T00:21:38.748Z,19.80
2018-06-11T00:22:39.315Z,19.79
2018-06-11T00:23:39.446Z,19.80
2018-06-11T00:24:39.137Z,19.89
2018-06-11T00:25:39.547Z,19.87
2018-06-11T00:26:39.474Z,20.01
2018-06-11T00:27:39.502Z,19.95
2018-06-11T00:28:39.631Z,19.98
2018-06-11T00:29:39.710Z,19.94
2018-06-11T00:30:39.696Z,19.79
2018-06-11T00:31:39.372Z,19.90
2018-06-11T00:32:39.435Z,19.87
2018-06-11T00:33:39.497Z,19.97
2018-06-11T00:34:39.560Z,20.07
2018-06-11T00:35:39.623Z,19.95
2018-06-11T00:36:39.687Z,19.94
2018-06-11T00:37:39.748Z,19.94
2018-06-11T00:38:39.810Z,19.89
2018-06-11T00:39:39.908Z,19.92
2018-06-11T00:40:39.935Z,19.85
2018-06-11T00:41:39.998Z,19.89
2018-06-11T00:42:40.061Z,19.89
2018-06-11T00:43:40.688Z,19.95
2018-06-11T00:44:40.558Z,19.87
2018-06-11T00:45:40.816Z,19.92
2018-06-11T00:46:40.311Z,19.89
2018-06-11T00:47:40.373Z,19.83
2018-06-11T00:48:40.436Z,19.92
2018-06-11T00:49:40.499Z,19.79
2018-06-11T00:50:40.561Z,19.82
2018-06-11T00:51:40.623Z,19.78
2018-06-11T00:52:40.688Z,19.85
2018-06-11T00:53:40.751Z,19.85
2018-06-11T00:54:40.812Z,19.83
2018-06-11T00:55:40.873Z,19.83
2018-06-11T00:56:40.937Z,19.90
2018-06-11T00:57:40.998Z,19.83
2018-06-11T00:58:41.065Z,19.79
2018-06-11T00:59:41.125Z,19.80
2018-06-11T01:00:41.187Z,19.67
2018-06-11T01:01:41.253Z,19.70
2018-06-11T01:02:41.313Z,19.71
2018-06-11T01:03:41.374Z,19.68
2018-06-11T01:04:41.439Z,19.70
2018-06-11T01:05:41.507Z,19.75
2018-06-11T01:06:41.563Z,19.70
2018-06-11T01:07:41.625Z,19.79
2018-06-11T01:08:41.689Z,19.75
2018-06-11T01:09:41.751Z,19.80
2018-06-11T01:10:41.815Z,19.80
2018-06-11T01:11:41.876Z,19.87
2018-06-11T01:12:41.939Z,19.82
2018-06-11T01:13:42.006Z,19.85
2018-06-11T01:14:42.064Z,19.76
2018-06-11T01:15:42.125Z,19.78
2018-06-11T01:16:42.189Z,19.78
2018-06-11T01:17:42.251Z,19.90
2018-06-11T01:18:42.313Z,19.82
2018-06-11T01:19:42.376Z,19.78
2018-06-11T01:20:42.439Z,19.80
2018-06-11T01:21:42.502Z,19.86
2018-06-11T01:22:42.564Z,19.83
2018-06-11T01:23:42.627Z,19.79
2018-06-11T01:24:42.689Z,19.78
2018-06-11T01:25:42.752Z,19.89
2018-06-11T01:26:42.814Z,19.76
2018-06-11T01:27:42.877Z,19.85
2018-06-11T01:28:42.940Z,19.78
2018-06-11T01:29:43.002Z,19.83
2018-06-11T01:30:43.066Z,19.79
2018-06-11T01:31:43.127Z,19.95
2018-06-11T01:32:43.190Z,19.86
2018-06-11T01:33:43.253Z,19.85
2018-06-11T01:34:43.316Z,19.87
2018-06-11T01:35:43.378Z,19.87
2018-06-11T01:36:43.444Z,19.80
2018-06-11T01:37:43.504Z,19.80
2018-06-11T01:38:43.566Z,19.70
2018-06-11T01:39:43.628Z,19.65
2018-06-11T01:40:43.695Z,19.58
2018-06-11T01:41:43.754Z,19.52
2018-06-11T01:42:43.818Z,19.58
2018-06-11T01:43:43.878Z,19.60
2018-06-11T01:44:43.941Z,19.57
2018-06-11T01:45:44.005Z,19.60
2018-06-11T01:46:44.069Z,19.57
2018-06-11T01:47:44.129Z,19.49
2018-06-11T01:48:44.192Z,19.46
2018-06-11T01:49:44.254Z,19.50
2018-06-11T01:51:03.525Z,19.46
2018-06-11T01:51:44.377Z,19.47
2018-06-11T01:52:44.442Z,19.38
2018-06-11T01:53:44.507Z,19.45
2018-06-11T01:54:44.566Z,19.47
2018-06-11T01:55:44.628Z,19.40
2018-06-11T01:56:44.691Z,19.40
2018-06-11T01:57:44.754Z,19.38
2018-06-11T01:58:44.816Z,19.43
2018-06-11T01:59:44.878Z,19.31
2018-06-11T02:00:44.939Z,19.31
2018-06-11T02:01:45.006Z,19.32
2018-06-11T02:02:45.066Z,19.39
2018-06-11T02:03:45.127Z,19.43
2018-06-11T02:04:45.189Z,19.30
2018-06-11T02:05:45.253Z,19.40
2018-06-11T02:06:45.315Z,19.43
2018-06-11T02:07:45.376Z,19.39
2018-06-11T02:08:45.440Z,19.38
2018-06-11T02:09:45.502Z,19.28
2018-06-11T02:10:45.564Z,19.39
2018-06-11T02:11:45.625Z,19.32
2018-06-11T02:12:45.687Z,19.35
2018-06-11T02:13:45.750Z,19.34
2018-06-11T02:14:45.813Z,19.34
2018-06-11T02:15:45.873Z,19.38
2018-06-11T02:16:45.937Z,19.30
2018-06-11T02:17:45.998Z,19.30
2018-06-11T02:18:46.061Z,19.25
2018-06-11T02:19:46.123Z,19.27
2018-06-11T02:20:46.185Z,19.27
2018-06-11T02:21:46.247Z,19.31
2018-06-11T02:22:46.310Z,19.28
2018-06-11T02:23:46.371Z,19.27
2018-06-11T02:24:46.434Z,19.35
2018-06-11T02:25:46.514Z,19.32
2018-06-11T02:26:46.557Z,19.28
2018-06-11T02:27:46.620Z,19.16
2018-06-11T02:28:46.683Z,19.16
2018-06-11T02:29:46.746Z,19.20
2018-06-11T02:30:46.808Z,19.21
2018-06-11T02:31:46.869Z,19.17
2018-06-11T02:32:46.929Z,19.07
2018-06-11T02:33:47.001Z,19.09
2018-06-11T02:34:47.055Z,19.05
2018-06-11T02:35:47.117Z,19.16
2018-06-11T02:36:47.180Z,19.20
2018-06-11T02:37:47.242Z,19.21
2018-06-11T02:38:47.304Z,19.16
2018-06-11T02:39:47.371Z,19.16
2018-06-11T02:40:47.430Z,19.16
2018-06-11T02:41:47.491Z,19.24
2018-06-11T02:42:47.552Z,19.10
2018-06-11T02:43:47.620Z,19.13
2018-06-11T02:44:47.676Z,19.12
2018-06-11T02:45:47.746Z,18.97
2018-06-11T02:46:47.800Z,19.13
2018-06-11T02:47:48.777Z,19.09
2018-06-11T02:48:48.563Z,19.13
2018-06-11T02:49:47.986Z,19.16
2018-06-11T02:50:48.050Z,19.02
2018-06-11T02:51:48.116Z,19.17
2018-06-11T02:52:48.171Z,19.05
2018-06-11T02:53:48.234Z,19.02
2018-06-11T02:54:48.299Z,19.15
2018-06-11T02:55:48.358Z,19.12
2018-06-11T02:56:49.116Z,19.05
2018-06-11T02:57:49.099Z,18.96
2018-06-11T02:58:48.961Z,18.99
2018-06-11T02:59:48.607Z,19.12
2018-06-11T03:00:48.669Z,19.05
2018-06-11T03:01:48.730Z,19.05
2018-06-11T03:02:48.793Z,18.97
2018-06-11T03:03:48.856Z,19.10
2018-06-11T03:04:48.917Z,19.05
2018-06-11T03:05:48.981Z,19.10
2018-06-11T03:06:49.041Z,19.09
2018-06-11T03:07:49.102Z,19.02
2018-06-11T03:08:49.175Z,19.01
2018-06-11T03:09:49.227Z,19.12
2018-06-11T03:10:49.292Z,19.12
2018-06-11T03:11:49.351Z,19.16
2018-06-11T03:12:49.412Z,19.02
2018-06-11T03:13:49.480Z,19.05
2018-06-11T03:14:49.539Z,19.05
2018-06-11T03:15:49.597Z,18.99
2018-06-11T03:16:49.661Z,19.02
2018-06-11T03:17:49.722Z,18.91
2018-06-11T03:18:49.787Z,18.91
2018-06-11T03:19:49.846Z,18.87
2018-06-11T03:20:49.908Z,18.90
2018-06-11T03:21:49.974Z,18.89
2018-06-11T03:22:50.033Z,18.96
2018-06-11T03:23:50.097Z,18.89
2018-06-11T03:24:50.156Z,18.96
2018-06-11T03:25:50.218Z,19.05
2018-06-11T03:26:50.281Z,18.99
2018-06-11T03:27:50.343Z,18.94
2018-06-11T03:28:50.404Z,18.96
2018-06-11T03:29:50.468Z,18.99
2018-06-11T03:30:50.532Z,18.94
2018-06-11T03:31:50.590Z,18.99
2018-06-11T03:32:50.656Z,19.01
2018-06-11T03:33:50.715Z,18.99
2018-06-11T03:34:50.776Z,18.99
2018-06-11T03:35:50.889Z,18.90
2018-06-11T03:36:50.904Z,18.93
2018-06-11T03:37:50.962Z,18.91
2018-06-11T03:38:51.025Z,18.93
2018-06-11T03:39:51.086Z,18.86
2018-06-11T03:40:51.149Z,18.96
2018-06-11T03:41:51.210Z,18.94
2018-06-11T03:42:51.272Z,19.01
2018-06-11T03:43:51.378Z,19.01
2018-06-11T03:44:51.396Z,19.01
2018-06-11T03:45:51.463Z,18.97
2018-06-11T03:46:51.520Z,19.02
2018-06-11T03:47:51.585Z,19.05
2018-06-11T03:48:51.643Z,19.01
2018-06-11T03:49:51.716Z,18.96
2018-06-11T03:50:51.768Z,18.94
2018-06-11T03:51:51.829Z,18.87
2018-06-11T03:52:51.911Z,18.83
2018-06-11T03:53:51.954Z,18.84
2018-06-11T03:54:52.015Z,18.90
2018-06-11T03:55:52.078Z,18.87
2018-06-11T03:56:52.140Z,18.91
2018-06-11T03:57:52.276Z,19.01
2018-06-11T03:58:52.265Z,18.96
2018-06-11T03:59:52.337Z,19.01
2018-06-11T04:00:52.388Z,18.90
2018-06-11T04:01:52.450Z,18.83
2018-06-11T04:02:52.512Z,18.82
2018-06-11T04:03:52.572Z,18.83
2018-06-11T04:04:52.634Z,18.82
2018-06-11T04:05:52.698Z,18.91
2018-06-11T04:06:52.759Z,18.94
2018-06-11T04:07:52.824Z,18.91
2018-06-11T04:08:52.883Z,18.94
2018-06-11T04:09:52.945Z,18.97
2018-06-11T04:10:53.092Z,18.97
2018-06-11T04:11:53.071Z,18.96
2018-06-11T04:12:53.131Z,18.97
2018-06-11T04:13:53.195Z,18.97
2018-06-11T04:14:53.406Z,18.94
2018-06-11T04:15:53.317Z,19.06
2018-06-11T04:16:53.381Z,18.99
2018-06-11T04:17:53.441Z,18.99
2018-06-11T04:18:53.548Z,18.97
2018-06-11T04:19:53.817Z,19.01
2018-06-11T04:20:53.630Z,19.10
2018-06-11T04:21:53.689Z,19.01
2018-06-11T04:22:53.752Z,18.91
2018-06-11T04:23:53.812Z,18.97
2018-06-11T04:24:53.875Z,19.16
2018-06-11T04:25:53.939Z,19.15
2018-06-11T04:26:54.001Z,19.20
2018-06-11T04:27:54.062Z,19.21
2018-06-11T04:28:54.128Z,19.16
2018-06-11T04:29:54.186Z,19.15
2018-06-11T04:30:54.249Z,19.32
2018-06-11T04:31:54.800Z,19.34
2018-06-11T04:32:55.022Z,19.17
2018-06-11T04:33:54.965Z,19.20
2018-06-11T04:34:55.128Z,19.16
2018-06-11T04:35:55.195Z,19.20
2018-06-11T04:36:55.373Z,19.21
2018-06-11T04:37:55.303Z,19.20
2018-06-11T04:38:55.396Z,19.23
2018-06-11T04:39:55.369Z,19.17
2018-06-11T04:40:55.409Z,19.09
2018-06-11T04:41:55.675Z,19.07
2018-06-11T04:42:55.724Z,18.99
2018-06-11T04:43:55.057Z,18.94
2018-06-11T04:44:55.148Z,18.96
2018-06-11T04:45:55.183Z,19.13
2018-06-11T04:46:55.248Z,19.02
2018-06-11T04:47:55.306Z,19.16
2018-06-11T04:48:55.369Z,19.12
2018-06-11T04:49:55.430Z,19.16
2018-06-11T04:50:55.494Z,19.20
2018-06-11T04:51:55.555Z,19.21
2018-06-11T04:52:55.617Z,19.25
2018-06-11T04:53:55.680Z,19.15
2018-06-11T04:54:55.742Z,19.20
2018-06-11T04:55:55.805Z,19.30
2018-06-11T04:56:55.867Z,19.31
2018-06-11T04:57:55.929Z,19.24
2018-06-11T04:58:56.093Z,19.20
2018-06-11T04:59:56.055Z,19.28
2018-06-11T05:00:56.120Z,19.23
2018-06-11T05:01:56.179Z,19.23
2018-06-11T05:02:56.796Z,19.27
2018-06-11T05:03:56.796Z,19.34
2018-06-11T05:04:56.883Z,19.17
2018-06-11T05:05:57.073Z,19.25
2018-06-11T05:06:56.491Z,19.32
2018-06-11T05:07:56.579Z,19.32
2018-06-11T05:08:56.615Z,19.32
2018-06-11T05:09:56.932Z,19.40
2018-06-11T05:10:56.740Z,19.45
2018-06-11T05:11:56.803Z,19.43
2018-06-11T05:12:56.869Z,19.46
2018-06-11T05:13:56.929Z,19.55
2018-06-11T05:14:56.991Z,19.52
2018-06-11T05:15:57.053Z,19.55
2018-06-11T05:16:57.115Z,19.55
2018-06-11T05:17:57.179Z,19.62
2018-06-11T05:18:57.242Z,19.68
2018-06-11T05:19:57.304Z,19.70
2018-06-11T05:20:57.815Z,19.67
2018-06-11T05:21:58.146Z,19.65
2018-06-11T05:22:57.492Z,19.68
2018-06-11T05:23:57.554Z,19.64
2018-06-11T05:24:57.616Z,19.57
2018-06-11T05:25:57.680Z,19.68
2018-06-11T05:26:57.895Z,19.68
2018-06-11T05:27:57.805Z,19.75
2018-06-11T05:28:57.873Z,19.76
2018-06-11T05:29:57.937Z,19.70
2018-06-11T05:30:57.994Z,19.83
2018-06-11T05:31:58.058Z,19.89
2018-06-11T05:32:58.121Z,19.82
2018-06-11T05:33:58.184Z,19.97
2018-06-11T05:34:58.247Z,20.02
2018-06-11T05:35:58.311Z,20.05
2018-06-11T05:36:58.372Z,19.97
2018-06-11T05:37:58.454Z,20.07
2018-06-11T05:38:58.499Z,20.22
2018-06-11T05:39:58.568Z,20.10
2018-06-11T05:40:58.626Z,20.12
2018-06-11T05:41:58.688Z,20.05
2018-06-11T05:42:58.752Z,20.01
2018-06-11T05:43:58.815Z,20.13
2018-06-11T05:44:58.878Z,20.01
2018-06-11T05:45:58.942Z,19.98
2018-06-11T05:46:59.005Z,20.00
2018-06-11T05:47:59.116Z,19.78
2018-06-11T05:48:59.466Z,19.87
2018-06-11T05:49:59.196Z,19.98
2018-06-11T05:50:59.258Z,19.94
2018-06-11T05:51:59.321Z,20.02
2018-06-11T05:52:59.385Z,20.02
2018-06-11T05:53:59.467Z,20.16
2018-06-11T05:54:59.518Z,20.16
2018-06-11T05:55:59.583Z,20.30
2018-06-11T05:56:59.638Z,20.34
2018-06-11T05:57:59.702Z,20.50
2018-06-11T05:58:59.764Z,20.57
2018-06-11T05:59:59.828Z,20.72
2018-06-11T06:00:59.947Z,20.75
2018-06-11T06:01:59.957Z,20.85
2018-06-11T06:03:00.641Z,20.97
2018-06-11T06:04:00.082Z,20.98
2018-06-11T06:05:00.146Z,21.00
2018-06-11T06:06:00.210Z,21.11
2018-06-11T06:07:00.351Z,20.96
2018-06-11T06:08:00.338Z,20.91
2018-06-11T06:09:00.402Z,20.90
2018-06-11T06:10:00.468Z,21.01
2018-06-11T06:11:00.534Z,21.09
2018-06-11T06:12:00.594Z,21.05
2018-06-11T06:13:00.659Z,21.03
2018-06-11T06:14:00.723Z,21.00
2018-06-11T06:15:00.787Z,20.90
2018-06-11T06:16:00.851Z,20.96
2018-06-11T06:17:00.916Z,21.00
2018-06-11T06:18:00.982Z,21.03
2018-06-11T06:19:01.050Z,20.98
2018-06-11T06:20:01.108Z,21.05
2018-06-11T06:21:01.173Z,21.08
2018-06-11T06:22:01.237Z,21.09
2018-06-11T06:23:01.301Z,21.08
2018-06-11T06:24:01.366Z,21.11
2018-06-11T06:25:01.433Z,21.05
2018-06-11T06:26:01.496Z,21.03
2018-06-11T06:27:01.560Z,21.05
2018-06-11T06:28:01.623Z,21.06
2018-06-11T06:29:01.687Z,20.85
2018-06-11T06:30:01.751Z,20.98
2018-06-11T06:31:01.819Z,20.93
2018-06-11T06:32:01.880Z,21.09
2018-06-11T06:33:01.949Z,21.16
2018-06-11T06:34:02.539Z,21.24
2018-06-11T06:35:02.073Z,21.30
2018-06-11T06:36:02.135Z,21.43
2018-06-11T06:37:02.201Z,21.58
2018-06-11T06:38:02.800Z,21.67
2018-06-11T06:39:02.936Z,21.67
2018-06-11T06:40:02.765Z,21.75
2018-06-11T06:41:02.459Z,21.74
2018-06-11T06:42:02.522Z,21.86
2018-06-11T06:43:02.590Z,21.85
2018-06-11T06:44:02.651Z,21.68
2018-06-11T06:45:02.715Z,21.58
2018-06-11T06:46:02.781Z,21.59
2018-06-11T06:47:02.850Z,21.71
2018-06-11T06:48:02.909Z,21.70
2018-06-11T06:49:02.973Z,21.67
2018-06-11T06:50:03.062Z,21.67
2018-06-11T06:51:03.150Z,21.81
2018-06-11T06:52:03.217Z,21.67
2018-06-11T06:53:03.316Z,21.66
2018-06-11T06:54:03.298Z,21.73
2018-06-11T06:55:03.363Z,21.73
2018-06-11T06:56:03.432Z,21.67
2018-06-11T06:57:03.493Z,21.52
2018-06-11T06:58:03.558Z,21.48
2018-06-11T06:59:03.624Z,21.53
2018-06-11T07:00:03.687Z,21.56
2018-06-11T07:01:03.752Z,21.48
2018-06-11T07:02:03.851Z,21.58
2018-06-11T07:03:03.882Z,21.55
2018-06-11T07:04:03.946Z,21.55
2018-06-11T07:05:04.012Z,21.67
2018-06-11T07:06:04.077Z,21.79
2018-06-11T07:07:04.142Z,21.89
2018-06-11T07:08:04.245Z,22.04
2018-06-11T07:09:04.727Z,22.14
2018-06-11T07:10:04.336Z,22.09
2018-06-11T07:11:05.198Z,22.21
2018-06-11T07:12:05.139Z,22.42
2018-06-11T07:13:05.163Z,22.46
2018-06-11T07:14:05.232Z,22.48
2018-06-11T07:15:05.280Z,22.69
2018-06-11T07:16:04.729Z,22.66
2018-06-11T07:17:05.812Z,22.75
2018-06-11T07:18:04.860Z,22.74
2018-06-11T07:19:04.925Z,22.70
2018-06-11T07:20:04.990Z,22.54
2018-06-11T07:21:05.057Z,22.70
2018-06-11T07:22:05.145Z,22.75
2018-06-11T07:23:05.206Z,22.75
2018-06-11T07:24:05.272Z,22.79
2018-06-11T07:25:05.326Z,22.61
2018-06-11T07:26:05.699Z,22.66
2018-06-11T07:27:05.489Z,22.61
2018-06-11T07:28:05.520Z,22.45
2018-06-11T07:29:05.586Z,22.67
2018-06-11T07:30:05.671Z,22.61
2018-06-11T07:31:05.738Z,22.64
2018-06-11T07:32:05.821Z,22.82
2018-06-11T07:33:05.941Z,22.75
2018-06-11T07:34:05.958Z,22.64
2018-06-11T07:35:06.386Z,22.70
2018-06-11T07:36:06.064Z,22.69
2018-06-11T07:37:06.144Z,22.79
2018-06-11T07:38:06.217Z,22.74
2018-06-11T07:39:06.329Z,22.74
2018-06-11T07:40:06.328Z,22.70
2018-06-11T07:41:07.151Z,22.60
2018-06-11T07:42:06.468Z,22.64
2018-06-11T07:43:06.541Z,22.67
2018-06-11T07:44:06.591Z,22.48
2018-06-11T07:45:06.639Z,22.48
2018-06-11T07:46:06.760Z,22.59
2018-06-11T07:47:06.812Z,22.45
2018-06-11T07:48:06.886Z,22.46
2018-06-11T07:49:06.898Z,22.49
2018-06-11T07:50:06.969Z,22.48
2018-06-11T07:51:07.730Z,22.46
2018-06-11T07:52:08.068Z,22.30
2018-06-11T07:53:07.159Z,22.27
2018-06-11T07:54:07.225Z,22.06
2018-06-11T07:55:07.292Z,22.05
2018-06-11T07:56:07.358Z,22.12
2018-06-11T07:57:07.423Z,22.08
2018-06-11T07:58:07.486Z,22.27
2018-06-11T07:59:07.553Z,22.20
2018-06-11T08:00:07.619Z,22.27
2018-06-11T08:01:07.683Z,22.29
2018-06-11T08:02:07.747Z,22.35
2018-06-11T08:03:07.814Z,22.26
2018-06-11T08:04:07.877Z,22.41
2018-06-11T08:05:07.944Z,22.39
2018-06-11T08:06:08.013Z,22.31
2018-06-11T08:07:08.077Z,22.36
2018-06-11T08:08:08.139Z,22.35
2018-06-11T08:09:08.205Z,22.29
2018-06-11T08:10:08.270Z,22.35
2018-06-11T08:11:08.336Z,22.30
2018-06-11T08:12:08.403Z,22.44
2018-06-11T08:13:08.467Z,22.36
2018-06-11T08:14:08.532Z,22.42
2018-06-11T08:15:08.597Z,22.44
2018-06-11T08:16:08.662Z,22.48
2018-06-11T08:17:08.729Z,22.51
2018-06-11T08:18:08.792Z,22.42
2018-06-11T08:19:09.013Z,22.31
2018-06-11T08:20:08.925Z,22.35
2018-06-11T08:21:08.990Z,22.48
2018-06-11T08:22:09.055Z,22.51
2018-06-11T08:23:09.122Z,22.41
2018-06-11T08:24:09.185Z,22.46
2018-06-11T08:25:09.251Z,22.63
2018-06-11T08:26:09.316Z,22.64
2018-06-11T08:27:09.383Z,22.66
2018-06-11T08:28:09.447Z,22.78
2018-06-11T08:29:09.517Z,22.86
2018-06-11T08:30:09.594Z,22.88
2018-06-11T08:31:09.646Z,22.75
2018-06-11T08:32:09.710Z,22.74
2018-06-11T08:33:09.775Z,22.86
2018-06-11T08:34:09.842Z,22.97
2018-06-11T08:35:09.909Z,23.09
2018-06-11T08:36:10.124Z,23.12
2018-06-11T08:37:10.042Z,23.16
2018-06-11T08:38:10.107Z,23.18
2018-06-11T08:39:10.173Z,23.22
2018-06-11T08:40:10.239Z,23.16
2018-06-11T08:41:10.556Z,22.97
2018-06-11T08:42:10.371Z,22.96
2018-06-11T08:43:10.462Z,22.96
2018-06-11T08:44:10.502Z,23.14
2018-06-11T08:45:10.569Z,23.25
2018-06-11T08:46:10.636Z,23.44
2018-06-11T08:47:10.702Z,23.37
2018-06-11T08:48:10.767Z,23.31
2018-06-11T08:49:10.835Z,22.93
2018-06-11T08:50:10.955Z,23.04
2018-06-11T08:51:10.968Z,22.79
2018-06-11T08:52:11.037Z,23.00
2018-06-11T08:53:11.705Z,23.19
2018-06-11T08:54:11.167Z,23.03
2018-06-11T08:55:11.581Z,23.23
2018-06-11T08:56:11.301Z,23.21
2018-06-11T08:57:11.368Z,23.18
2018-06-11T08:58:11.435Z,22.93
2018-06-11T08:59:11.527Z,23.15
2018-06-11T09:00:11.567Z,23.21
2018-06-11T09:01:11.636Z,23.38
2018-06-11T09:02:11.703Z,23.47
2018-06-11T09:03:11.770Z,23.67
2018-06-11T09:04:11.837Z,23.77
2018-06-11T09:05:11.904Z,23.81
2018-06-11T09:06:11.971Z,23.82
2018-06-11T09:07:12.723Z,24.00
2018-06-11T09:08:12.104Z,23.94
2018-06-11T09:09:12.375Z,24.29
2018-06-11T09:10:12.242Z,24.14
2018-06-11T09:11:12.309Z,24.09
2018-06-11T09:12:12.377Z,24.11
2018-06-11T09:13:12.443Z,24.31
2018-06-11T09:14:12.518Z,24.24
2018-06-11T09:15:12.591Z,24.53
2018-06-11T09:16:12.648Z,24.84
2018-06-11T09:17:12.717Z,24.56
2018-06-11T09:18:12.981Z,24.55
2018-06-11T09:19:12.857Z,24.63
2018-06-11T09:20:12.923Z,24.44
2018-06-11T09:21:12.990Z,24.49
2018-06-11T09:22:13.061Z,24.44
2018-06-11T09:23:13.129Z,24.30
2018-06-11T09:24:13.196Z,24.29
2018-06-11T09:25:13.267Z,24.46
2018-06-11T09:26:13.335Z,24.23
2018-06-11T09:27:13.404Z,23.99
2018-06-11T09:28:13.473Z,24.16
2018-06-11T09:29:13.539Z,24.27
2018-06-11T09:30:13.611Z,24.19
2018-06-11T09:31:13.678Z,23.86
2018-06-11T09:32:13.745Z,24.04
2018-06-11T09:33:13.813Z,24.30
2018-06-11T09:34:13.881Z,24.30
2018-06-11T09:35:13.950Z,24.39
2018-06-11T09:36:14.021Z,24.39
2018-06-11T09:37:14.086Z,24.52
2018-06-11T09:38:14.166Z,24.51
2018-06-11T09:39:14.223Z,24.59
2018-06-11T09:40:14.292Z,24.30
2018-06-11T09:41:14.359Z,24.41
2018-06-11T09:42:14.430Z,24.24
2018-06-11T09:43:14.497Z,24.06
2018-06-11T09:44:14.640Z,23.99
2018-06-11T09:45:14.632Z,23.97
2018-06-11T09:46:14.701Z,24.09
2018-06-11T09:47:14.770Z,24.08
2018-06-11T09:48:14.838Z,24.09
2018-06-11T09:49:15.110Z,24.14
2018-06-11T09:50:14.972Z,24.08
2018-06-11T09:51:15.041Z,23.79
2018-06-11T09:52:15.108Z,23.60
2018-06-11T09:53:15.175Z,23.39
2018-06-11T09:54:15.247Z,23.39
2018-06-11T09:55:15.311Z,23.41
2018-06-11T09:56:15.378Z,23.26
2018-06-11T09:57:15.446Z,23.26
2018-06-11T09:58:15.513Z,23.15
2018-06-11T09:59:15.581Z,23.31
2018-06-11T10:00:15.656Z,23.23
2018-06-11T10:01:15.714Z,23.18
2018-06-11T10:02:15.781Z,23.07
2018-06-11T10:03:15.848Z,23.14
2018-06-11T10:04:15.914Z,23.03
2018-06-11T10:05:15.982Z,23.09
2018-06-11T10:06:16.048Z,23.29
2018-06-11T10:07:16.115Z,23.32
2018-06-11T10:08:16.180Z,23.42
2018-06-11T10:09:16.248Z,23.31
2018-06-11T10:10:16.314Z,23.19
2018-06-11T10:11:16.381Z,22.93
2018-06-11T10:12:16.513Z,22.60
2018-06-11T10:13:16.515Z,22.63
2018-06-11T10:14:16.581Z,22.66
2018-06-11T10:15:16.654Z,22.85
2018-06-11T10:16:16.712Z,22.91
2018-06-11T10:17:16.779Z,23.03
2018-06-11T10:18:16.846Z,23.09
2018-06-11T10:19:16.917Z,23.26
2018-06-11T10:20:16.978Z,23.50
2018-06-11T10:21:17.045Z,23.53
2018-06-11T10:22:17.111Z,23.63
2018-06-11T10:23:17.178Z,23.68
2018-06-11T10:24:17.244Z,23.42
2018-06-11T10:25:17.313Z,23.69
2018-06-11T10:26:17.378Z,23.75
2018-06-11T10:27:17.595Z,23.90
2018-06-11T10:28:17.511Z,24.15
2018-06-11T10:29:17.620Z,24.29
2018-06-11T10:30:17.666Z,24.12
2018-06-11T10:31:17.712Z,23.86
2018-06-11T10:32:18.405Z,23.92
2018-06-11T10:33:18.577Z,24.02
2018-06-11T10:34:17.916Z,23.94
2018-06-11T10:35:18.675Z,23.79
2018-06-11T10:36:18.074Z,23.82
2018-06-11T10:37:18.691Z,23.86
2018-06-11T10:38:18.805Z,23.63
2018-06-11T10:39:18.251Z,23.74
2018-06-11T10:40:18.316Z,23.62
2018-06-11T10:41:18.384Z,23.49
2018-06-11T10:42:18.450Z,23.50
2018-06-11T10:43:18.519Z,23.54
2018-06-11T10:44:18.584Z,23.47
2018-06-11T10:45:18.652Z,23.44
2018-06-11T10:46:18.719Z,23.38
2018-06-11T10:47:18.785Z,23.39
2018-06-11T10:48:18.851Z,23.42
2018-06-11T10:49:18.919Z,23.29
2018-06-11T10:50:18.987Z,23.29
2018-06-11T10:51:19.054Z,23.31
2018-06-11T10:52:19.117Z,23.23
2018-06-11T10:53:19.184Z,23.29
2018-06-11T10:54:19.251Z,23.41
2018-06-11T10:55:19.318Z,23.31
2018-06-11T10:56:19.383Z,23.25
2018-06-11T10:57:19.450Z,23.31
2018-06-11T10:58:19.983Z,23.32
2018-06-11T10:59:20.124Z,23.47
2018-06-11T11:00:19.648Z,23.54
2018-06-11T11:01:19.715Z,23.54
2018-06-11T11:02:19.781Z,23.41
2018-06-11T11:03:19.847Z,23.44
2018-06-11T11:04:19.914Z,23.52
2018-06-11T11:05:19.980Z,23.62
2018-06-11T11:06:20.047Z,23.63
2018-06-11T11:07:20.114Z,23.62
2018-06-11T11:08:20.179Z,23.62
2018-06-11T11:09:20.244Z,23.49
2018-06-11T11:10:20.312Z,23.50
2018-06-11T11:11:20.379Z,23.52
2018-06-11T11:12:20.447Z,23.45
2018-06-11T11:13:20.510Z,23.39
2018-06-11T11:14:20.582Z,23.39
2018-06-11T11:15:20.643Z,23.45
2018-06-11T11:16:20.708Z,23.37
2018-06-11T11:17:20.774Z,23.31
2018-06-11T11:18:20.841Z,23.29
2018-06-11T11:19:20.907Z,23.45
2018-06-11T11:20:20.971Z,23.42
2018-06-11T11:21:21.040Z,23.37
2018-06-11T11:22:21.103Z,23.53
2018-06-11T11:23:21.171Z,23.49
2018-06-11T11:24:21.238Z,23.53
2018-06-11T11:25:21.301Z,23.59
2018-06-11T11:26:21.821Z,23.69
2018-06-11T11:27:21.433Z,23.71
2018-06-11T11:28:21.844Z,23.60
2018-06-11T11:29:21.564Z,23.60
2018-06-11T11:30:21.629Z,23.50
2018-06-11T11:31:21.697Z,23.49
2018-06-11T11:32:21.761Z,23.53
2018-06-11T11:33:21.827Z,23.57
2018-06-11T11:34:21.892Z,23.62
2018-06-11T11:35:21.960Z,23.54
2018-06-11T11:36:22.024Z,23.45
2018-06-11T11:37:22.089Z,23.53
2018-06-11T11:38:22.165Z,23.42
2018-06-11T11:39:22.224Z,23.45
2018-06-11T11:40:22.285Z,23.44
2018-06-11T11:41:22.352Z,23.49
2018-06-11T11:42:22.417Z,23.39
2018-06-11T11:43:22.487Z,23.45
2018-06-11T11:44:22.548Z,23.42
2018-06-11T11:45:22.613Z,23.31
2018-06-11T11:46:22.681Z,23.39
2018-06-11T11:47:22.748Z,23.39
2018-06-11T11:48:22.809Z,23.37
2018-06-11T11:49:22.877Z,23.34
2018-06-11T11:50:22.948Z,23.45
2018-06-11T11:51:23.008Z,23.44
2018-06-11T11:52:23.071Z,23.38
2018-06-11T11:53:23.137Z,23.31
2018-06-11T11:54:23.203Z,23.41
2018-06-11T11:55:23.268Z,23.45
2018-06-11T11:56:23.333Z,23.39
2018-06-11T11:57:23.403Z,23.34
2018-06-11T11:58:23.463Z,23.34
2018-06-11T11:59:23.531Z,23.32
2018-06-11T12:00:23.595Z,23.38
2018-06-11T12:01:23.661Z,23.39
2018-06-11T12:02:23.726Z,23.39
2018-06-11T12:03:23.792Z,23.37
2018-06-11T12:04:23.856Z,23.42
2018-06-11T12:05:23.922Z,23.52
2018-06-11T12:06:23.987Z,23.50
2018-06-11T12:07:24.055Z,23.45
2018-06-11T12:08:24.116Z,23.49
2018-06-11T12:09:24.185Z,23.47
2018-06-11T12:10:24.248Z,23.34
2018-06-11T12:11:24.320Z,23.49
2018-06-11T12:12:24.379Z,23.34
2018-06-11T12:13:24.444Z,23.44
2018-06-11T12:14:24.511Z,23.26
2018-06-11T12:15:24.576Z,23.25
2018-06-11T12:16:24.641Z,23.18
2018-06-11T12:17:24.706Z,23.23
2018-06-11T12:18:24.771Z,23.14
2018-06-11T12:19:24.838Z,23.04
2018-06-11T12:20:24.902Z,22.93
2018-06-11T12:21:24.967Z,22.96
2018-06-11T12:22:25.346Z,22.75
2018-06-11T12:23:25.099Z,22.56
2018-06-11T12:24:25.163Z,22.36
2018-06-11T12:25:25.228Z,22.36
2018-06-11T12:26:25.293Z,22.33
2018-06-11T12:27:25.358Z,22.21
2018-06-11T12:28:25.423Z,22.29
2018-06-11T12:29:25.487Z,22.36
2018-06-11T12:30:25.557Z,22.45
2018-06-11T12:31:25.617Z,22.24
2018-06-11T12:32:25.685Z,22.29
2018-06-11T12:33:25.746Z,22.41
2018-06-11T12:34:25.813Z,22.46
2018-06-11T12:35:25.879Z,22.67
2018-06-11T12:36:25.941Z,22.75
2018-06-11T12:37:26.008Z,22.88
2018-06-11T12:38:26.076Z,22.88
2018-06-11T12:39:26.135Z,22.89
2018-06-11T12:40:26.511Z,22.84
2018-06-11T12:41:26.263Z,22.76
2018-06-11T12:42:26.776Z,22.82
2018-06-11T12:43:26.939Z,22.86
2018-06-11T12:44:27.079Z,22.82
2018-06-11T12:45:26.523Z,23.00
2018-06-11T12:46:26.588Z,22.99
2018-06-11T12:47:26.653Z,23.03
2018-06-11T12:48:26.715Z,22.91
2018-06-11T12:49:26.779Z,22.82
2018-06-11T12:50:26.845Z,22.75
2018-06-11T12:51:26.909Z,22.81
2018-06-11T12:52:26.992Z,22.82
2018-06-11T12:53:27.037Z,22.64